sensor_id;sensor_type;location;lat;lon;timestamp;P1;durP1;ratioP1;P2;durP2;ratioP2
77280;SDS011;66339;47.262;17.144;2023-12-14T00:01:39;12.30;;;7.00;;
77280;SDS011;66339;47.262;17.144;2023-12-14T00:04:06;9.95;;;7.28;;
77280;SDS011;66339;47.262;17.144;2023-12-14T00:06:33;11.10;;;6.90;;
77280;SDS011;66339;47.262;17.144;2023-12-14T00:09:03;10.77;;;7.40;;
77280;SDS011;66339;47.262;17.144;2023-12-14T00:11:31;9.38;;;6.85;;
77280;SDS011;66339;47.262;17.144;2023-12-14T00:13:58;10.70;;;7.18;;
77280;SDS011;66339;47.262;17.144;2023-12-14T00:16:24;9.13;;;7.03;;
77280;SDS011;66339;47.262;17.144;2023-12-14T00:18:54;10.23;;;7.05;;
77280;SDS011;66339;47.262;17.144;2023-12-14T00:21:22;9.48;;;6.60;;
77280;SDS011;66339;47.262;17.144;2023-12-14T00:23:51;9.50;;;6.85;;
77280;SDS011;66339;47.262;17.144;2023-12-14T00:26:18;11.82;;;6.47;;
77280;SDS011;66339;47.262;17.144;2023-12-14T00:28:45;9.48;;;6.60;;
77280;SDS011;66339;47.262;17.144;2023-12-14T00:31:27;9.60;;;6.68;;
77280;SDS011;66339;47.262;17.144;2023-12-14T00:33:54;10.38;;;6.80;;
77280;SDS011;66339;47.262;17.144;2023-12-14T00:36:21;9.27;;;6.37;;
77280;SDS011;66339;47.262;17.144;2023-12-14T00:38:48;8.70;;;6.75;;
77280;SDS011;66339;47.262;17.144;2023-12-14T00:41:15;9.43;;;6.05;;
77280;SDS011;66339;47.262;17.144;2023-12-14T00:43:44;10.38;;;6.22;;
77280;SDS011;66339;47.262;17.144;2023-12-14T00:46:11;9.30;;;6.62;;
77280;SDS011;66339;47.262;17.144;2023-12-14T00:48:38;9.48;;;6.37;;
77280;SDS011;66339;47.262;17.144;2023-12-14T00:51:05;9.50;;;6.50;;
77280;SDS011;66339;47.262;17.144;2023-12-14T00:53:32;7.70;;;6.07;;
77280;SDS011;66339;47.262;17.144;2023-12-14T00:56:06;9.38;;;6.30;;
77280;SDS011;66339;47.262;17.144;2023-12-14T00:58:35;9.48;;;6.30;;
77280;SDS011;66339;47.262;17.144;2023-12-14T01:01:05;9.05;;;6.05;;
77280;SDS011;66339;47.262;17.144;2023-12-14T01:03:35;8.43;;;5.87;;
77280;SDS011;66339;47.262;17.144;2023-12-14T01:06:02;8.80;;;6.70;;
77280;SDS011;66339;47.262;17.144;2023-12-14T01:08:29;7.60;;;6.20;;
77280;SDS011;66339;47.262;17.144;2023-12-14T01:10:59;7.90;;;6.20;;
77280;SDS011;66339;47.262;17.144;2023-12-14T01:13:27;7.93;;;5.80;;
77280;SDS011;66339;47.262;17.144;2023-12-14T01:15:56;8.80;;;6.45;;
77280;SDS011;66339;47.262;17.144;2023-12-14T01:18:26;8.30;;;6.10;;
77280;SDS011;66339;47.262;17.144;2023-12-14T01:20:53;8.48;;;6.10;;
77280;SDS011;66339;47.262;17.144;2023-12-14T01:23:20;9.68;;;6.90;;
77280;SDS011;66339;47.262;17.144;2023-12-14T01:25:47;8.98;;;6.40;;
77280;SDS011;66339;47.262;17.144;2023-12-14T01:28:14;10.57;;;6.57;;
77280;SDS011;66339;47.262;17.144;2023-12-14T01:30:43;9.45;;;6.43;;
77280;SDS011;66339;47.262;17.144;2023-12-14T01:33:10;7.65;;;5.85;;
77280;SDS011;66339;47.262;17.144;2023-12-14T01:35:37;8.68;;;6.60;;
77280;SDS011;66339;47.262;17.144;2023-12-14T01:38:04;7.87;;;5.60;;
77280;SDS011;66339;47.262;17.144;2023-12-14T01:40:34;8.20;;;5.50;;
77280;SDS011;66339;47.262;17.144;2023-12-14T01:43:08;8.32;;;5.87;;
77280;SDS011;66339;47.262;17.144;2023-12-14T01:45:36;8.52;;;6.15;;
77280;SDS011;66339;47.262;17.144;2023-12-14T01:48:04;7.35;;;5.82;;
77280;SDS011;66339;47.262;17.144;2023-12-14T01:50:31;7.82;;;5.93;;
77280;SDS011;66339;47.262;17.144;2023-12-14T01:53:01;7.50;;;5.90;;
77280;SDS011;66339;47.262;17.144;2023-12-14T01:55:34;7.75;;;6.07;;
77280;SDS011;66339;47.262;17.144;2023-12-14T01:58:01;8.85;;;6.05;;
77280;SDS011;66339;47.262;17.144;2023-12-14T02:00:31;7.55;;;5.60;;
77280;SDS011;66339;47.262;17.144;2023-12-14T02:03:06;9.40;;;5.97;;
77280;SDS011;66339;47.262;17.144;2023-12-14T02:05:36;7.75;;;5.97;;
77280;SDS011;66339;47.262;17.144;2023-12-14T02:08:03;7.62;;;5.80;;
77280;SDS011;66339;47.262;17.144;2023-12-14T02:10:31;9.38;;;5.35;;
77280;SDS011;66339;47.262;17.144;2023-12-14T02:12:58;7.68;;;5.72;;
77280;SDS011;66339;47.262;17.144;2023-12-14T02:15:30;7.07;;;5.47;;
77280;SDS011;66339;47.262;17.144;2023-12-14T02:17:57;7.30;;;5.30;;
77280;SDS011;66339;47.262;17.144;2023-12-14T02:20:24;8.18;;;5.05;;
77280;SDS011;66339;47.262;17.144;2023-12-14T02:22:54;7.82;;;5.90;;
77280;SDS011;66339;47.262;17.144;2023-12-14T02:25:22;6.20;;;5.32;;
77280;SDS011;66339;47.262;17.144;2023-12-14T02:27:55;7.55;;;5.45;;
77280;SDS011;66339;47.262;17.144;2023-12-14T02:30:22;9.18;;;5.25;;
77280;SDS011;66339;47.262;17.144;2023-12-14T02:32:52;7.45;;;5.50;;
77280;SDS011;66339;47.262;17.144;2023-12-14T02:35:25;6.95;;;5.47;;
77280;SDS011;66339;47.262;17.144;2023-12-14T02:37:55;7.75;;;5.60;;
77280;SDS011;66339;47.262;17.144;2023-12-14T02:40:25;7.22;;;5.62;;
77280;SDS011;66339;47.262;17.144;2023-12-14T02:42:52;6.40;;;5.00;;
77280;SDS011;66339;47.262;17.144;2023-12-14T02:45:22;6.95;;;5.00;;
77280;SDS011;66339;47.262;17.144;2023-12-14T02:47:52;7.62;;;5.05;;
77280;SDS011;66339;47.262;17.144;2023-12-14T02:50:22;6.90;;;5.28;;
77280;SDS011;66339;47.262;17.144;2023-12-14T02:52:49;6.37;;;4.90;;
77280;SDS011;66339;47.262;17.144;2023-12-14T02:55:16;7.72;;;5.28;;
77280;SDS011;66339;47.262;17.144;2023-12-14T02:57:43;6.87;;;4.97;;
77280;SDS011;66339;47.262;17.144;2023-12-14T03:00:10;6.80;;;5.00;;
77280;SDS011;66339;47.262;17.144;2023-12-14T03:02:37;5.90;;;5.03;;
77280;SDS011;66339;47.262;17.144;2023-12-14T03:05:07;6.93;;;5.40;;
77280;SDS011;66339;47.262;17.144;2023-12-14T03:07:36;7.43;;;5.30;;
77280;SDS011;66339;47.262;17.144;2023-12-14T03:10:03;6.65;;;5.05;;
77280;SDS011;66339;47.262;17.144;2023-12-14T03:12:30;6.87;;;5.10;;
77280;SDS011;66339;47.262;17.144;2023-12-14T03:15:00;6.22;;;4.97;;
77280;SDS011;66339;47.262;17.144;2023-12-14T03:17:27;6.37;;;5.03;;
77280;SDS011;66339;47.262;17.144;2023-12-14T03:19:56;6.12;;;5.05;;
77280;SDS011;66339;47.262;17.144;2023-12-14T03:22:23;7.22;;;5.40;;
77280;SDS011;66339;47.262;17.144;2023-12-14T03:24:53;6.30;;;4.90;;
77280;SDS011;66339;47.262;17.144;2023-12-14T03:27:19;6.65;;;4.80;;
77280;SDS011;66339;47.262;17.144;2023-12-14T03:29:46;5.75;;;4.72;;
77280;SDS011;66339;47.262;17.144;2023-12-14T03:32:13;7.07;;;5.10;;
77280;SDS011;66339;47.262;17.144;2023-12-14T03:34:40;5.60;;;4.62;;
77280;SDS011;66339;47.262;17.144;2023-12-14T03:37:06;5.87;;;4.90;;
77280;SDS011;66339;47.262;17.144;2023-12-14T03:39:33;7.95;;;4.93;;
77280;SDS011;66339;47.262;17.144;2023-12-14T03:42:06;5.75;;;4.40;;
77280;SDS011;66339;47.262;17.144;2023-12-14T03:44:33;6.75;;;5.00;;
77280;SDS011;66339;47.262;17.144;2023-12-14T03:47:03;6.87;;;5.00;;
77280;SDS011;66339;47.262;17.144;2023-12-14T03:49:30;5.93;;;4.75;;
77280;SDS011;66339;47.262;17.144;2023-12-14T03:51:57;6.22;;;4.37;;
77280;SDS011;66339;47.262;17.144;2023-12-14T03:54:24;6.87;;;5.07;;
77280;SDS011;66339;47.262;17.144;2023-12-14T03:56:56;6.73;;;4.87;;
77280;SDS011;66339;47.262;17.144;2023-12-14T03:59:25;5.87;;;4.45;;
77280;SDS011;66339;47.262;17.144;2023-12-14T04:01:53;6.00;;;4.60;;
77280;SDS011;66339;47.262;17.144;2023-12-14T04:04:20;5.90;;;4.80;;
77280;SDS011;66339;47.262;17.144;2023-12-14T04:06:47;5.12;;;4.40;;
77280;SDS011;66339;47.262;17.144;2023-12-14T04:09:13;5.80;;;4.53;;
77280;SDS011;66339;47.262;17.144;2023-12-14T04:14:16;5.85;;;4.57;;
77280;SDS011;66339;47.262;17.144;2023-12-14T04:16:44;5.35;;;4.50;;
77280;SDS011;66339;47.262;17.144;2023-12-14T04:19:14;5.55;;;4.45;;
77280;SDS011;66339;47.262;17.144;2023-12-14T04:21:41;7.20;;;4.53;;
77280;SDS011;66339;47.262;17.144;2023-12-14T04:24:10;5.70;;;4.47;;
77280;SDS011;66339;47.262;17.144;2023-12-14T04:26:40;6.03;;;4.22;;
77280;SDS011;66339;47.262;17.144;2023-12-14T04:29:07;5.03;;;4.00;;
77280;SDS011;66339;47.262;17.144;2023-12-14T04:31:34;6.20;;;4.45;;
77280;SDS011;66339;47.262;17.144;2023-12-14T04:34:01;5.90;;;4.57;;
77280;SDS011;66339;47.262;17.144;2023-12-14T04:36:33;5.30;;;4.13;;
77280;SDS011;66339;47.262;17.144;2023-12-14T04:39:01;5.47;;;4.53;;
77280;SDS011;66339;47.262;17.144;2023-12-14T04:41:31;6.78;;;4.32;;
77280;SDS011;66339;47.262;17.144;2023-12-14T04:43:58;5.47;;;4.37;;
77280;SDS011;66339;47.262;17.144;2023-12-14T04:46:30;4.68;;;3.97;;
77280;SDS011;66339;47.262;17.144;2023-12-14T04:48:56;5.65;;;4.20;;
77280;SDS011;66339;47.262;17.144;2023-12-14T04:51:23;5.32;;;4.32;;
77280;SDS011;66339;47.262;17.144;2023-12-14T04:53:50;5.12;;;4.22;;
77280;SDS011;66339;47.262;17.144;2023-12-14T04:56:17;6.30;;;4.65;;
77280;SDS011;66339;47.262;17.144;2023-12-14T04:58:44;5.30;;;4.22;;
77280;SDS011;66339;47.262;17.144;2023-12-14T05:01:15;5.57;;;4.37;;
77280;SDS011;66339;47.262;17.144;2023-12-14T05:03:42;5.05;;;3.95;;
77280;SDS011;66339;47.262;17.144;2023-12-14T05:06:09;5.30;;;4.20;;
77280;SDS011;66339;47.262;17.144;2023-12-14T05:08:35;5.50;;;4.40;;
77280;SDS011;66339;47.262;17.144;2023-12-14T05:11:08;5.65;;;4.00;;
77280;SDS011;66339;47.262;17.144;2023-12-14T05:13:35;5.22;;;4.43;;
77280;SDS011;66339;47.262;17.144;2023-12-14T05:16:05;5.90;;;4.32;;
77280;SDS011;66339;47.262;17.144;2023-12-14T05:18:53;4.47;;;3.83;;
77280;SDS011;66339;47.262;17.144;2023-12-14T05:21:20;5.00;;;4.12;;
77280;SDS011;66339;47.262;17.144;2023-12-14T05:23:50;5.03;;;4.07;;
77280;SDS011;66339;47.262;17.144;2023-12-14T05:26:17;5.75;;;4.28;;
77280;SDS011;66339;47.262;17.144;2023-12-14T05:28:44;4.78;;;4.03;;
77280;SDS011;66339;47.262;17.144;2023-12-14T05:31:14;5.20;;;4.10;;
77280;SDS011;66339;47.262;17.144;2023-12-14T05:53:15;4.60;;;3.85;;
77280;SDS011;66339;47.262;17.144;2023-12-14T05:55:42;5.25;;;3.90;;
77280;SDS011;66339;47.262;17.144;2023-12-14T05:58:13;4.70;;;3.92;;
77280;SDS011;66339;47.262;17.144;2023-12-14T06:03:28;4.32;;;3.80;;
77280;SDS011;66339;47.262;17.144;2023-12-14T06:05:55;4.87;;;4.12;;
77280;SDS011;66339;47.262;17.144;2023-12-14T06:08:25;5.03;;;3.92;;
77280;SDS011;66339;47.262;17.144;2023-12-14T06:10:51;4.75;;;3.90;;
77280;SDS011;66339;47.262;17.144;2023-12-14T06:13:21;5.25;;;4.18;;
77280;SDS011;66339;47.262;17.144;2023-12-14T06:15:48;4.82;;;3.78;;
77280;SDS011;66339;47.262;17.144;2023-12-14T06:18:15;4.30;;;3.70;;
77280;SDS011;66339;47.262;17.144;2023-12-14T06:20:42;4.50;;;3.58;;
77280;SDS011;66339;47.262;17.144;2023-12-14T06:23:15;4.97;;;3.97;;
77280;SDS011;66339;47.262;17.144;2023-12-14T06:25:48;5.30;;;4.10;;
77280;SDS011;66339;47.262;17.144;2023-12-14T06:28:15;4.70;;;3.58;;
77280;SDS011;66339;47.262;17.144;2023-12-14T06:30:43;4.32;;;3.62;;
77280;SDS011;66339;47.262;17.144;2023-12-14T06:33:10;5.40;;;3.92;;
77280;SDS011;66339;47.262;17.144;2023-12-14T06:35:40;4.10;;;3.67;;
77280;SDS011;66339;47.262;17.144;2023-12-14T06:38:07;4.43;;;3.70;;
77280;SDS011;66339;47.262;17.144;2023-12-14T06:40:37;4.68;;;3.60;;
77280;SDS011;66339;47.262;17.144;2023-12-14T06:43:04;4.80;;;3.47;;
77280;SDS011;66339;47.262;17.144;2023-12-14T06:45:34;7.07;;;3.50;;
77280;SDS011;66339;47.262;17.144;2023-12-14T06:48:03;5.57;;;3.70;;
77280;SDS011;66339;47.262;17.144;2023-12-14T06:50:34;7.55;;;3.70;;
77280;SDS011;66339;47.262;17.144;2023-12-14T06:53:00;4.07;;;3.40;;
77280;SDS011;66339;47.262;17.144;2023-12-14T06:55:31;4.55;;;3.70;;
77280;SDS011;66339;47.262;17.144;2023-12-14T06:57:58;5.37;;;3.70;;
77280;SDS011;66339;47.262;17.144;2023-12-14T07:00:25;5.40;;;3.60;;
77280;SDS011;66339;47.262;17.144;2023-12-14T07:02:52;5.95;;;3.47;;
77280;SDS011;66339;47.262;17.144;2023-12-14T07:05:25;4.62;;;3.42;;
77280;SDS011;66339;47.262;17.144;2023-12-14T07:07:52;5.70;;;4.00;;
77280;SDS011;66339;47.262;17.144;2023-12-14T07:10:22;5.93;;;3.85;;
77280;SDS011;66339;47.262;17.144;2023-12-14T07:12:49;7.25;;;3.90;;
77280;SDS011;66339;47.262;17.144;2023-12-14T07:15:16;6.75;;;3.90;;
77280;SDS011;66339;47.262;17.144;2023-12-14T07:17:49;7.57;;;4.20;;
77280;SDS011;66339;47.262;17.144;2023-12-14T07:20:16;6.62;;;3.62;;
77280;SDS011;66339;47.262;17.144;2023-12-14T07:22:43;9.70;;;3.70;;
77280;SDS011;66339;47.262;17.144;2023-12-14T07:25:13;6.37;;;3.62;;
77280;SDS011;66339;47.262;17.144;2023-12-14T07:27:52;9.63;;;3.72;;
77280;SDS011;66339;47.262;17.144;2023-12-14T07:30:19;7.43;;;3.78;;
77280;SDS011;66339;47.262;17.144;2023-12-14T07:32:50;7.15;;;3.65;;
77280;SDS011;66339;47.262;17.144;2023-12-14T07:35:30;9.98;;;3.55;;
77280;SDS011;66339;47.262;17.144;2023-12-14T07:38:01;12.55;;;3.72;;
77280;SDS011;66339;47.262;17.144;2023-12-14T07:40:28;12.70;;;3.67;;
77280;SDS011;66339;47.262;17.144;2023-12-14T07:42:58;12.13;;;3.55;;
77280;SDS011;66339;47.262;17.144;2023-12-14T07:45:28;13.00;;;3.90;;
77280;SDS011;66339;47.262;17.144;2023-12-14T07:47:55;19.17;;;4.12;;
77280;SDS011;66339;47.262;17.144;2023-12-14T07:50:23;14.93;;;5.53;;
77280;SDS011;66339;47.262;17.144;2023-12-14T07:52:55;11.20;;;4.28;;
77280;SDS011;66339;47.262;17.144;2023-12-14T07:55:25;15.10;;;4.62;;
77280;SDS011;66339;47.262;17.144;2023-12-14T07:57:52;11.52;;;3.80;;
77280;SDS011;66339;47.262;17.144;2023-12-14T08:00:23;13.30;;;4.18;;
77280;SDS011;66339;47.262;17.144;2023-12-14T08:02:49;12.90;;;3.60;;
77280;SDS011;66339;47.262;17.144;2023-12-14T08:05:17;16.15;;;3.62;;
77280;SDS011;66339;47.262;17.144;2023-12-14T08:07:43;18.67;;;3.90;;
77280;SDS011;66339;47.262;17.144;2023-12-14T08:10:10;10.88;;;5.43;;
77280;SDS011;66339;47.262;17.144;2023-12-14T08:12:40;18.20;;;4.18;;
77280;SDS011;66339;47.262;17.144;2023-12-14T08:15:10;11.80;;;3.92;;
77280;SDS011;66339;47.262;17.144;2023-12-14T08:17:37;12.40;;;3.85;;
77280;SDS011;66339;47.262;17.144;2023-12-14T08:20:11;9.35;;;3.67;;
77280;SDS011;66339;47.262;17.144;2023-12-14T08:22:41;12.70;;;3.83;;
77280;SDS011;66339;47.262;17.144;2023-12-14T08:25:13;13.07;;;3.92;;
77280;SDS011;66339;47.262;17.144;2023-12-14T08:27:41;12.98;;;3.75;;
77280;SDS011;66339;47.262;17.144;2023-12-14T08:30:13;10.48;;;3.62;;
77280;SDS011;66339;47.262;17.144;2023-12-14T08:32:40;13.02;;;3.45;;
77280;SDS011;66339;47.262;17.144;2023-12-14T08:35:10;8.02;;;3.33;;
77280;SDS011;66339;47.262;17.144;2023-12-14T08:37:37;9.75;;;3.95;;
77280;SDS011;66339;47.262;17.144;2023-12-14T08:40:07;15.07;;;3.97;;
77280;SDS011;66339;47.262;17.144;2023-12-14T08:42:35;6.80;;;3.65;;
77280;SDS011;66339;47.262;17.144;2023-12-14T08:45:07;11.82;;;4.12;;
77280;SDS011;66339;47.262;17.144;2023-12-14T08:47:41;9.00;;;3.85;;
77280;SDS011;66339;47.262;17.144;2023-12-14T08:50:08;22.67;;;4.35;;
77280;SDS011;66339;47.262;17.144;2023-12-14T08:52:35;9.10;;;3.50;;
77280;SDS011;66339;47.262;17.144;2023-12-14T08:55:08;16.73;;;4.20;;
77280;SDS011;66339;47.262;17.144;2023-12-14T09:00:08;18.87;;;4.57;;
77280;SDS011;66339;47.262;17.144;2023-12-14T09:02:41;10.00;;;3.67;;
77280;SDS011;66339;47.262;17.144;2023-12-14T09:05:08;7.55;;;3.65;;
77280;SDS011;66339;47.262;17.144;2023-12-14T09:07:42;8.48;;;3.53;;
77280;SDS011;66339;47.262;17.144;2023-12-14T09:10:09;8.77;;;3.92;;
77280;SDS011;66339;47.262;17.144;2023-12-14T09:12:36;13.98;;;3.87;;
77280;SDS011;66339;47.262;17.144;2023-12-14T09:15:03;7.18;;;3.30;;
77280;SDS011;66339;47.262;17.144;2023-12-14T09:17:31;7.68;;;3.37;;
77280;SDS011;66339;47.262;17.144;2023-12-14T09:20:03;7.80;;;3.25;;
77280;SDS011;66339;47.262;17.144;2023-12-14T09:22:31;8.95;;;3.60;;
77280;SDS011;66339;47.262;17.144;2023-12-14T09:25:03;8.55;;;3.40;;
77280;SDS011;66339;47.262;17.144;2023-12-14T09:27:34;6.18;;;3.55;;
77280;SDS011;66339;47.262;17.144;2023-12-14T09:30:02;7.57;;;3.12;;
77280;SDS011;66339;47.262;17.144;2023-12-14T09:32:32;7.32;;;3.00;;
77280;SDS011;66339;47.262;17.144;2023-12-14T09:35:02;6.65;;;3.25;;
77280;SDS011;66339;47.262;17.144;2023-12-14T09:37:32;5.72;;;3.17;;
77280;SDS011;66339;47.262;17.144;2023-12-14T09:40:03;7.47;;;3.05;;
77280;SDS011;66339;47.262;17.144;2023-12-14T09:42:36;9.48;;;3.10;;
77280;SDS011;66339;47.262;17.144;2023-12-14T09:45:04;6.05;;;3.00;;
77280;SDS011;66339;47.262;17.144;2023-12-14T09:47:34;6.35;;;3.05;;
77280;SDS011;66339;47.262;17.144;2023-12-14T09:50:04;4.70;;;2.90;;
77280;SDS011;66339;47.262;17.144;2023-12-14T09:52:32;7.00;;;2.90;;
77280;SDS011;66339;47.262;17.144;2023-12-14T09:54:59;9.13;;;3.00;;
77280;SDS011;66339;47.262;17.144;2023-12-14T09:57:29;6.40;;;2.90;;
77280;SDS011;66339;47.262;17.144;2023-12-14T09:59:56;9.80;;;2.70;;
77280;SDS011;66339;47.262;17.144;2023-12-14T10:02:26;9.95;;;2.95;;
77280;SDS011;66339;47.262;17.144;2023-12-14T10:04:59;10.15;;;3.08;;
77280;SDS011;66339;47.262;17.144;2023-12-14T10:07:38;14.07;;;2.80;;
77280;SDS011;66339;47.262;17.144;2023-12-14T10:10:11;6.65;;;2.85;;
77280;SDS011;66339;47.262;17.144;2023-12-14T10:15:26;7.03;;;2.67;;
77280;SDS011;66339;47.262;17.144;2023-12-14T10:17:56;13.62;;;3.40;;
77280;SDS011;66339;47.262;17.144;2023-12-14T10:20:30;6.15;;;2.80;;
77280;SDS011;66339;47.262;17.144;2023-12-14T10:23:03;10.80;;;2.80;;
77280;SDS011;66339;47.262;17.144;2023-12-14T10:25:39;7.32;;;2.60;;
77280;SDS011;66339;47.262;17.144;2023-12-14T10:28:07;6.75;;;2.60;;
77280;SDS011;66339;47.262;17.144;2023-12-14T10:30:37;8.07;;;2.70;;
77280;SDS011;66339;47.262;17.144;2023-12-14T10:33:04;3.87;;;2.70;;
77280;SDS011;66339;47.262;17.144;2023-12-14T10:35:31;6.30;;;2.80;;
77280;SDS011;66339;47.262;17.144;2023-12-14T10:38:01;6.35;;;2.70;;
77280;SDS011;66339;47.262;17.144;2023-12-14T10:40:29;5.87;;;2.58;;
77280;SDS011;66339;47.262;17.144;2023-12-14T10:42:58;8.05;;;3.03;;
77280;SDS011;66339;47.262;17.144;2023-12-14T10:45:33;8.23;;;3.12;;
77280;SDS011;66339;47.262;17.144;2023-12-14T10:48:04;10.73;;;3.17;;
77280;SDS011;66339;47.262;17.144;2023-12-14T10:50:34;10.95;;;2.80;;
77280;SDS011;66339;47.262;17.144;2023-12-14T10:53:02;14.38;;;3.20;;
77280;SDS011;66339;47.262;17.144;2023-12-14T10:55:37;12.37;;;3.00;;
77280;SDS011;66339;47.262;17.144;2023-12-14T10:58:14;7.93;;;2.85;;
77280;SDS011;66339;47.262;17.144;2023-12-14T11:01:01;4.20;;;2.60;;
77280;SDS011;66339;47.262;17.144;2023-12-14T11:03:39;6.85;;;2.72;;
77280;SDS011;66339;47.262;17.144;2023-12-14T11:09:07;6.57;;;2.70;;
77280;SDS011;66339;47.262;17.144;2023-12-14T11:11:41;6.22;;;2.58;;
77280;SDS011;66339;47.262;17.144;2023-12-14T11:14:32;6.37;;;2.58;;
77280;SDS011;66339;47.262;17.144;2023-12-14T11:17:06;6.80;;;2.80;;
77280;SDS011;66339;47.262;17.144;2023-12-14T11:19:36;6.50;;;2.60;;
77280;SDS011;66339;47.262;17.144;2023-12-14T11:22:12;6.78;;;2.35;;
77280;SDS011;66339;47.262;17.144;2023-12-14T11:24:56;13.48;;;2.70;;
77280;SDS011;66339;47.262;17.144;2023-12-14T11:27:31;7.85;;;2.50;;
77280;SDS011;66339;47.262;17.144;2023-12-14T11:29:58;7.82;;;2.90;;
77280;SDS011;66339;47.262;17.144;2023-12-14T11:32:28;6.03;;;2.50;;
77280;SDS011;66339;47.262;17.144;2023-12-14T11:34:58;7.60;;;2.87;;
77280;SDS011;66339;47.262;17.144;2023-12-14T11:37:29;6.53;;;2.20;;
77280;SDS011;66339;47.262;17.144;2023-12-14T11:39:56;11.38;;;2.47;;
77280;SDS011;66339;47.262;17.144;2023-12-14T11:42:26;6.05;;;2.22;;
77280;SDS011;66339;47.262;17.144;2023-12-14T11:44:52;5.62;;;2.20;;
77280;SDS011;66339;47.262;17.144;2023-12-14T11:47:20;5.50;;;2.47;;
77280;SDS011;66339;47.262;17.144;2023-12-14T11:49:47;9.93;;;2.70;;
77280;SDS011;66339;47.262;17.144;2023-12-14T11:54:50;12.45;;;2.72;;
77280;SDS011;66339;47.262;17.144;2023-12-14T11:57:19;8.63;;;2.25;;
77280;SDS011;66339;47.262;17.144;2023-12-14T11:59:46;3.60;;;2.05;;
77280;SDS011;66339;47.262;17.144;2023-12-14T12:02:22;8.15;;;2.20;;
77280;SDS011;66339;47.262;17.144;2023-12-14T12:04:53;9.10;;;2.40;;
77280;SDS011;66339;47.262;17.144;2023-12-14T12:07:20;9.23;;;2.60;;
77280;SDS011;66339;47.262;17.144;2023-12-14T12:09:54;5.07;;;2.22;;
77280;SDS011;66339;47.262;17.144;2023-12-14T12:12:24;4.97;;;2.28;;
77280;SDS011;66339;47.262;17.144;2023-12-14T12:14:54;8.10;;;2.20;;
77280;SDS011;66339;47.262;17.144;2023-12-14T12:17:22;7.65;;;2.50;;
77280;SDS011;66339;47.262;17.144;2023-12-14T12:19:55;7.62;;;2.95;;
77280;SDS011;66339;47.262;17.144;2023-12-14T12:22:25;6.07;;;2.40;;
77280;SDS011;66339;47.262;17.144;2023-12-14T12:24:55;3.55;;;2.28;;
77280;SDS011;66339;47.262;17.144;2023-12-14T12:27:37;8.73;;;2.22;;
77280;SDS011;66339;47.262;17.144;2023-12-14T12:30:07;5.53;;;2.47;;
77280;SDS011;66339;47.262;17.144;2023-12-14T12:32:35;5.72;;;2.50;;
77280;SDS011;66339;47.262;17.144;2023-12-14T12:35:02;4.95;;;1.90;;
77280;SDS011;66339;47.262;17.144;2023-12-14T12:37:29;5.80;;;2.47;;
77280;SDS011;66339;47.262;17.144;2023-12-14T12:39:58;5.82;;;2.08;;
77280;SDS011;66339;47.262;17.144;2023-12-14T12:42:28;5.57;;;2.00;;
77280;SDS011;66339;47.262;17.144;2023-12-14T12:45:00;3.25;;;1.90;;
77280;SDS011;66339;47.262;17.144;2023-12-14T12:47:36;3.58;;;2.00;;
77280;SDS011;66339;47.262;17.144;2023-12-14T12:50:12;2.67;;;1.62;;
77280;SDS011;66339;47.262;17.144;2023-12-14T12:52:49;3.08;;;2.12;;
77280;SDS011;66339;47.262;17.144;2023-12-14T12:55:17;6.40;;;2.10;;
77280;SDS011;66339;47.262;17.144;2023-12-14T12:57:48;4.43;;;1.92;;
77280;SDS011;66339;47.262;17.144;2023-12-14T13:00:21;7.50;;;2.12;;
77280;SDS011;66339;47.262;17.144;2023-12-14T13:02:50;6.68;;;2.30;;
77280;SDS011;66339;47.262;17.144;2023-12-14T13:05:23;6.47;;;2.50;;
77280;SDS011;66339;47.262;17.144;2023-12-14T13:07:52;9.15;;;2.55;;
77280;SDS011;66339;47.262;17.144;2023-12-14T13:10:22;13.48;;;2.78;;
77280;SDS011;66339;47.262;17.144;2023-12-14T13:12:57;8.15;;;2.58;;
77280;SDS011;66339;47.262;17.144;2023-12-14T13:15:29;13.15;;;2.28;;
77280;SDS011;66339;47.262;17.144;2023-12-14T13:17:59;14.15;;;2.70;;
77280;SDS011;66339;47.262;17.144;2023-12-14T13:20:30;7.03;;;2.15;;
77280;SDS011;66339;47.262;17.144;2023-12-14T13:22:59;4.82;;;2.03;;
77280;SDS011;66339;47.262;17.144;2023-12-14T13:25:27;8.63;;;2.05;;
77280;SDS011;66339;47.262;17.144;2023-12-14T13:27:57;6.12;;;2.20;;
77280;SDS011;66339;47.262;17.144;2023-12-14T13:30:24;8.18;;;2.15;;
77280;SDS011;66339;47.262;17.144;2023-12-14T13:49:28;3.80;;;1.20;;
77280;SDS011;66339;47.262;17.144;2023-12-14T13:51:59;4.28;;;1.40;;
77280;SDS011;66339;47.262;17.144;2023-12-14T13:54:29;3.25;;;1.48;;
77280;SDS011;66339;47.262;17.144;2023-12-14T13:56:59;1.90;;;1.30;;
77280;SDS011;66339;47.262;17.144;2023-12-14T13:59:32;3.55;;;1.40;;
77280;SDS011;66339;47.262;17.144;2023-12-14T14:02:00;9.30;;;1.33;;
77280;SDS011;66339;47.262;17.144;2023-12-14T14:04:27;3.17;;;1.20;;
77280;SDS011;66339;47.262;17.144;2023-12-14T14:07:04;4.37;;;1.30;;
77280;SDS011;66339;47.262;17.144;2023-12-14T14:09:35;3.05;;;1.37;;
77280;SDS011;66339;47.262;17.144;2023-12-14T14:12:05;2.70;;;1.30;;
77280;SDS011;66339;47.262;17.144;2023-12-14T14:14:39;2.33;;;1.23;;
77280;SDS011;66339;47.262;17.144;2023-12-14T14:17:05;2.75;;;1.37;;
77280;SDS011;66339;47.262;17.144;2023-12-14T14:19:35;4.57;;;1.20;;
77280;SDS011;66339;47.262;17.144;2023-12-14T14:22:07;2.03;;;1.15;;
77280;SDS011;66339;47.262;17.144;2023-12-14T14:24:40;3.78;;;1.60;;
77280;SDS011;66339;47.262;17.144;2023-12-14T14:27:13;3.65;;;1.30;;
77280;SDS011;66339;47.262;17.144;2023-12-14T14:29:42;2.50;;;1.50;;
77280;SDS011;66339;47.262;17.144;2023-12-14T14:32:15;3.22;;;1.42;;
77280;SDS011;66339;47.262;17.144;2023-12-14T14:34:49;3.05;;;1.20;;
77280;SDS011;66339;47.262;17.144;2023-12-14T14:37:16;2.75;;;1.33;;
77280;SDS011;66339;47.262;17.144;2023-12-14T14:39:47;4.00;;;1.37;;
77280;SDS011;66339;47.262;17.144;2023-12-14T14:42:17;2.28;;;1.08;;
77280;SDS011;66339;47.262;17.144;2023-12-14T14:44:47;1.95;;;1.10;;
77280;SDS011;66339;47.262;17.144;2023-12-14T14:47:17;4.18;;;1.30;;
77280;SDS011;66339;47.262;17.144;2023-12-14T14:49:46;2.08;;;1.20;;
77280;SDS011;66339;47.262;17.144;2023-12-14T14:52:16;6.95;;;1.33;;
77280;SDS011;66339;47.262;17.144;2023-12-14T14:54:55;4.15;;;1.60;;
77280;SDS011;66339;47.262;17.144;2023-12-14T14:57:26;1.70;;;1.20;;
77280;SDS011;66339;47.262;17.144;2023-12-14T14:59:57;3.15;;;1.10;;
77280;SDS011;66339;47.262;17.144;2023-12-14T15:02:24;12.75;;;1.40;;
77280;SDS011;66339;47.262;17.144;2023-12-14T15:04:52;3.30;;;1.30;;
77280;SDS011;66339;47.262;17.144;2023-12-14T15:07:54;7.43;;;1.60;;
77280;SDS011;66339;47.262;17.144;2023-12-14T15:10:25;4.70;;;1.40;;
77280;SDS011;66339;47.262;17.144;2023-12-14T15:12:59;12.35;;;2.30;;
77280;SDS011;66339;47.262;17.144;2023-12-14T15:15:32;12.57;;;2.33;;
77280;SDS011;66339;47.262;17.144;2023-12-14T15:20:46;8.35;;;1.87;;
77280;SDS011;66339;47.262;17.144;2023-12-14T15:26:36;4.10;;;1.50;;
77280;SDS011;66339;47.262;17.144;2023-12-14T15:32:34;5.87;;;1.55;;
77280;SDS011;66339;47.262;17.144;2023-12-14T15:44:46;7.37;;;1.55;;
77280;SDS011;66339;47.262;17.144;2023-12-14T15:52:21;5.97;;;1.67;;
77280;SDS011;66339;47.262;17.144;2023-12-14T16:00:27;11.52;;;1.52;;
77280;SDS011;66339;47.262;17.144;2023-12-14T16:02:56;9.13;;;1.92;;
77280;SDS011;66339;47.262;17.144;2023-12-14T16:05:31;9.20;;;1.90;;
77280;SDS011;66339;47.262;17.144;2023-12-14T16:08:05;6.10;;;2.03;;
77280;SDS011;66339;47.262;17.144;2023-12-14T16:10:40;4.95;;;1.50;;